LFAT/LTQ METAR and TAF weather

Enter ICAO airport designator
Station Type Date Time Source
LFAT METAR 2024/05/28 22:30 UTC NOAA

LFAT 282230Z AUTO 23013KT 190V270 8000 OVC005/// ///TCU 15/14 Q1013


Station Type Date Time Source
LFAT Decoded METAR 2024/05/28 22:30 UTC NOAA

Le Touquet, France (LFAT) 50-31N 001-37E 14M
May 28, 2024 - 06:30 PM EDT / 2024.05.28 2230 UTC
Wind: from the SW (230 degrees) at 15 MPH (13 KT) (direction variable):0
Visibility: 4 mile(s):0
Sky conditions: overcast
Weather: Towering cumulus clouds observed
Temperature: 59 F (15 C)
Dew Point: 57 F (14 C)
Relative Humidity: 93%
Pressure (altimeter): 29.91 in. Hg (1013 hPa)
ob: LFAT 282230Z AUTO 23013KT 190V270 8000 OVC005/// ///TCU 15/14 Q1013
cycle: 22

Station Type Date Time Source
LFAT TAF 2018/07/14 09:21 UTC NOAA